Terminal Aerodrome Forecast
Issued by NWS

Home | Current Version | Previous Version | Text Only | Print | Product List | Glossary On
Versions: 1 2 3 4 5 6 7 8 9 10 11 12 13 14 15
000
FTUS45 KGJT 300535
TAFDRO
TAF
KDRO 300535Z 3006/0106 22008KT P6SM FEW070 BKN090
     FM301200 04004KT P6SM SCT130
     FM301500 00000KT P6SM VCSH BKN150
     FM301800 24008KT P6SM VCSH BKN130=

USA.gov is the U.S. government's official web portal to all federal, state and local government web resources and services.